sensor_id;sensor_type;location;lat;lon;timestamp;pressure;altitude;pressure_sealevel;temperature;humidity
6387;BME280;3226;42.162;24.756;2023-05-21T00:00:13;99438.09;;;16.51;87.70
6387;BME280;3226;42.162;24.756;2023-05-21T00:02:41;99412.66;;;16.41;88.31
6387;BME280;3226;42.162;24.756;2023-05-21T00:05:09;99342.81;;;15.96;88.11
6387;BME280;3226;42.162;24.756;2023-05-21T00:07:40;99425.38;;;16.46;88.77
6387;BME280;3226;42.162;24.756;2023-05-21T00:10:09;99397.50;;;16.35;88.93
6387;BME280;3226;42.162;24.756;2023-05-21T00:12:38;99419.44;;;16.44;88.98
6387;BME280;3226;42.162;24.756;2023-05-21T00:15:08;99411.53;;;16.36;89.52
6387;BME280;3226;42.162;24.756;2023-05-21T00:17:36;99405.72;;;16.48;88.95
6387;BME280;3226;42.162;24.756;2023-05-21T00:20:06;99406.88;;;16.46;89.44
6387;BME280;3226;42.162;24.756;2023-05-21T00:22:35;99393.53;;;16.31;90.05
6387;BME280;3226;42.162;24.756;2023-05-21T00:25:04;99398.34;;;16.36;89.74
6387;BME280;3226;42.162;24.756;2023-05-21T00:27:32;99403.47;;;16.29;90.49
6387;BME280;3226;42.162;24.756;2023-05-21T00:30:01;99405.59;;;16.33;90.02
6387;BME280;3226;42.162;24.756;2023-05-21T00:32:30;99397.34;;;16.37;89.49
6387;BME280;3226;42.162;24.756;2023-05-21T00:34:58;99393.50;;;16.47;88.61
6387;BME280;3226;42.162;24.756;2023-05-21T00:37:26;99385.19;;;16.59;87.81
6387;BME280;3226;42.162;24.756;2023-05-21T00:39:55;99385.38;;;16.49;87.60
6387;BME280;3226;42.162;24.756;2023-05-21T00:42:24;99290.34;;;15.93;87.58
6387;BME280;3226;42.162;24.756;2023-05-21T00:44:53;99387.00;;;16.58;87.10
6387;BME280;3226;42.162;24.756;2023-05-21T00:47:22;99384.38;;;16.50;87.13
6387;BME280;3226;42.162;24.756;2023-05-21T00:49:53;99382.94;;;16.47;86.95
6387;BME280;3226;42.162;24.756;2023-05-21T00:52:21;99379.09;;;16.50;86.80
6387;BME280;3226;42.162;24.756;2023-05-21T00:54:52;99377.94;;;16.53;87.10
6387;BME280;3226;42.162;24.756;2023-05-21T00:57:21;99379.59;;;16.54;86.03
6387;BME280;3226;42.162;24.756;2023-05-21T00:59:50;99373.66;;;16.52;86.91
6387;BME280;3226;42.162;24.756;2023-05-21T01:02:19;99376.00;;;16.46;86.78
6387;BME280;3226;42.162;24.756;2023-05-21T01:04:53;99373.81;;;16.50;86.75
6387;BME280;3226;42.162;24.756;2023-05-21T01:07:21;99377.81;;;16.46;87.26
6387;BME280;3226;42.162;24.756;2023-05-21T01:09:50;99362.03;;;16.29;86.92
6387;BME280;3226;42.162;24.756;2023-05-21T01:12:20;99384.28;;;16.35;87.70
6387;BME280;3226;42.162;24.756;2023-05-21T01:14:50;99374.84;;;16.41;87.17
6387;BME280;3226;42.162;24.756;2023-05-21T01:17:22;99378.97;;;16.43;86.78
6387;BME280;3226;42.162;24.756;2023-05-21T01:19:51;99374.66;;;16.42;87.23
6387;BME280;3226;42.162;24.756;2023-05-21T01:22:20;99376.00;;;16.38;87.67
6387;BME280;3226;42.162;24.756;2023-05-21T01:24:53;99376.88;;;16.30;88.37
6387;BME280;3226;42.162;24.756;2023-05-21T01:27:21;99371.09;;;16.27;88.67
6387;BME280;3226;42.162;24.756;2023-05-21T01:29:49;99367.47;;;16.28;88.83
6387;BME280;3226;42.162;24.756;2023-05-21T01:32:23;99371.09;;;16.27;89.33
6387;BME280;3226;42.162;24.756;2023-05-21T01:34:58;99364.22;;;16.17;89.65
6387;BME280;3226;42.162;24.756;2023-05-21T01:37:31;99369.66;;;16.16;90.47
6387;BME280;3226;42.162;24.756;2023-05-21T01:40:08;99365.53;;;16.22;89.50
6387;BME280;3226;42.162;24.756;2023-05-21T01:42:40;99362.56;;;16.16;89.71
6387;BME280;3226;42.162;24.756;2023-05-21T01:45:11;99359.44;;;16.13;90.00
6387;BME280;3226;42.162;24.756;2023-05-21T01:47:44;99364.22;;;16.17;89.56
6387;BME280;3226;42.162;24.756;2023-05-21T01:50:14;99364.22;;;16.17;89.46
6387;BME280;3226;42.162;24.756;2023-05-21T01:52:48;99355.94;;;16.21;89.24
6387;BME280;3226;42.162;24.756;2023-05-21T01:55:18;99360.09;;;16.15;89.06
6387;BME280;3226;42.162;24.756;2023-05-21T01:57:52;99358.41;;;16.22;89.05
6387;BME280;3226;42.162;24.756;2023-05-21T02:00:22;99342.91;;;16.19;88.34
6387;BME280;3226;42.162;24.756;2023-05-21T02:02:50;99336.81;;;16.18;88.02
6387;BME280;3226;42.162;24.756;2023-05-21T02:05:19;99353.25;;;16.29;87.74
6387;BME280;3226;42.162;24.756;2023-05-21T02:07:48;99327.34;;;16.24;87.20
6387;BME280;3226;42.162;24.756;2023-05-21T02:10:19;99352.56;;;16.35;86.94
6387;BME280;3226;42.162;24.756;2023-05-21T02:12:47;99348.59;;;16.39;86.63
6387;BME280;3226;42.162;24.756;2023-05-21T02:15:15;99352.13;;;16.31;86.63
6387;BME280;3226;42.162;24.756;2023-05-21T02:17:43;99345.53;;;16.27;86.64
6387;BME280;3226;42.162;24.756;2023-05-21T02:20:12;99345.66;;;16.34;85.72
6387;BME280;3226;42.162;24.756;2023-05-21T02:22:43;99353.22;;;16.37;85.31
6387;BME280;3226;42.162;24.756;2023-05-21T02:25:13;99349.94;;;16.35;84.90
6387;BME280;3226;42.162;24.756;2023-05-21T02:27:43;99338.84;;;16.40;85.19
6387;BME280;3226;42.162;24.756;2023-05-21T02:30:14;99343.03;;;16.26;84.84
6387;BME280;3226;42.162;24.756;2023-05-21T02:32:42;99320.00;;;16.11;85.72
6387;BME280;3226;42.162;24.756;2023-05-21T02:35:11;99352.97;;;16.24;85.61
6387;BME280;3226;42.162;24.756;2023-05-21T02:37:40;99333.50;;;16.08;85.67
6387;BME280;3226;42.162;24.756;2023-05-21T02:40:10;99349.38;;;16.16;85.48
6387;BME280;3226;42.162;24.756;2023-05-21T02:42:39;99345.38;;;16.21;85.42
6387;BME280;3226;42.162;24.756;2023-05-21T02:45:10;99344.06;;;16.16;85.29
6387;BME280;3226;42.162;24.756;2023-05-21T02:47:38;99351.66;;;16.19;84.87
6387;BME280;3226;42.162;24.756;2023-05-21T02:50:07;99344.38;;;16.22;84.40
6387;BME280;3226;42.162;24.756;2023-05-21T02:52:36;99346.88;;;16.15;84.74
6387;BME280;3226;42.162;24.756;2023-05-21T02:55:04;99348.31;;;16.26;84.21
6387;BME280;3226;42.162;24.756;2023-05-21T02:57:32;99345.19;;;16.22;83.75
6387;BME280;3226;42.162;24.756;2023-05-21T03:00:00;99350.31;;;16.24;83.31
6387;BME280;3226;42.162;24.756;2023-05-21T03:02:32;99345.22;;;16.14;83.97
6387;BME280;3226;42.162;24.756;2023-05-21T03:05:00;99346.59;;;16.01;84.37
6387;BME280;3226;42.162;24.756;2023-05-21T03:07:28;99349.38;;;16.08;84.42
6387;BME280;3226;42.162;24.756;2023-05-21T03:09:56;99340.59;;;16.16;84.36
6387;BME280;3226;42.162;24.756;2023-05-21T03:12:24;99343.09;;;16.17;84.26
6387;BME280;3226;42.162;24.756;2023-05-21T03:14:52;99348.56;;;16.08;85.53
6387;BME280;3226;42.162;24.756;2023-05-21T03:17:22;99343.78;;;16.11;85.13
6387;BME280;3226;42.162;24.756;2023-05-21T03:19:51;99347.06;;;16.05;85.97
6387;BME280;3226;42.162;24.756;2023-05-21T03:22:20;99352.00;;;16.08;85.79
6387;BME280;3226;42.162;24.756;2023-05-21T03:24:48;99327.16;;;15.78;86.91
6387;BME280;3226;42.162;24.756;2023-05-21T03:27:16;99347.44;;;15.85;87.48
6387;BME280;3226;42.162;24.756;2023-05-21T03:29:44;99351.75;;;15.78;88.44
6387;BME280;3226;42.162;24.756;2023-05-21T03:32:12;99349.75;;;15.97;87.22
6387;BME280;3226;42.162;24.756;2023-05-21T03:34:40;99355.84;;;15.97;87.05
6387;BME280;3226;42.162;24.756;2023-05-21T03:37:10;99353.38;;;15.96;87.65
6387;BME280;3226;42.162;24.756;2023-05-21T03:39:38;99353.03;;;15.99;87.48
6387;BME280;3226;42.162;24.756;2023-05-21T03:42:06;99356.66;;;15.98;87.77
6387;BME280;3226;42.162;24.756;2023-05-21T03:44:34;99353.88;;;15.99;87.19
6387;BME280;3226;42.162;24.756;2023-05-21T03:47:02;99356.31;;;16.01;86.65
6387;BME280;3226;42.162;24.756;2023-05-21T03:49:29;99349.41;;;16.00;87.00
6387;BME280;3226;42.162;24.756;2023-05-21T03:51:57;99351.19;;;16.08;86.95
6387;BME280;3226;42.162;24.756;2023-05-21T03:54:27;99362.56;;;16.08;86.98
6387;BME280;3226;42.162;24.756;2023-05-21T03:56:55;99352.16;;;16.15;86.14
6387;BME280;3226;42.162;24.756;2023-05-21T03:59:23;99354.16;;;16.13;85.79
6387;BME280;3226;42.162;24.756;2023-05-21T04:01:51;99350.13;;;16.25;84.72
6387;BME280;3226;42.162;24.756;2023-05-21T04:04:18;99348.72;;;16.14;84.90
6387;BME280;3226;42.162;24.756;2023-05-21T04:06:46;99355.22;;;15.95;85.87
6387;BME280;3226;42.162;24.756;2023-05-21T04:09:15;99361.31;;;15.79;87.39
6387;BME280;3226;42.162;24.756;2023-05-21T04:11:44;99342.47;;;15.99;86.67
6387;BME280;3226;42.162;24.756;2023-05-21T04:14:13;99341.13;;;16.03;86.25
6387;BME280;3226;42.162;24.756;2023-05-21T04:16:41;99349.38;;;16.16;85.76
6387;BME280;3226;42.162;24.756;2023-05-21T04:19:10;99344.69;;;16.27;84.61
6387;BME280;3226;42.162;24.756;2023-05-21T04:21:38;99351.19;;;16.08;85.10
6387;BME280;3226;42.162;24.756;2023-05-21T04:24:06;99352.59;;;15.62;85.04
6387;BME280;3226;42.162;24.756;2023-05-21T04:26:34;99336.25;;;15.75;85.22
6387;BME280;3226;42.162;24.756;2023-05-21T04:29:03;99351.88;;;15.85;85.91
6387;BME280;3226;42.162;24.756;2023-05-21T04:31:31;99354.03;;;15.98;85.88
6387;BME280;3226;42.162;24.756;2023-05-21T04:33:59;99347.63;;;15.92;86.28
6387;BME280;3226;42.162;24.756;2023-05-21T04:36:27;99352.34;;;16.05;86.27
6387;BME280;3226;42.162;24.756;2023-05-21T04:38:55;99348.25;;;16.02;86.69
6387;BME280;3226;42.162;24.756;2023-05-21T04:41:23;99351.88;;;16.01;86.96
6387;BME280;3226;42.162;24.756;2023-05-21T04:43:51;99344.44;;;16.05;86.66
6387;BME280;3226;42.162;24.756;2023-05-21T04:46:22;99346.69;;;16.25;86.23
6387;BME280;3226;42.162;24.756;2023-05-21T04:48:51;99360.00;;;16.40;85.46
6387;BME280;3226;42.162;24.756;2023-05-21T04:51:20;99342.25;;;16.17;86.20
6387;BME280;3226;42.162;24.756;2023-05-21T04:53:50;99352.28;;;16.30;85.91
6387;BME280;3226;42.162;24.756;2023-05-21T04:56:19;99339.25;;;16.20;85.68
6387;BME280;3226;42.162;24.756;2023-05-21T04:58:48;99353.88;;;16.39;85.92
6387;BME280;3226;42.162;24.756;2023-05-21T05:01:16;99353.22;;;16.37;86.30
6387;BME280;3226;42.162;24.756;2023-05-21T05:03:46;99359.25;;;16.23;85.88
6387;BME280;3226;42.162;24.756;2023-05-21T05:06:15;99346.50;;;16.26;85.08
6387;BME280;3226;42.162;24.756;2023-05-21T05:08:43;99358.34;;;16.39;84.44
6387;BME280;3226;42.162;24.756;2023-05-21T05:11:12;99357.59;;;16.22;84.65
6387;BME280;3226;42.162;24.756;2023-05-21T05:13:40;99360.28;;;16.13;85.37
6387;BME280;3226;42.162;24.756;2023-05-21T05:16:08;99362.25;;;16.11;85.22
6387;BME280;3226;42.162;24.756;2023-05-21T05:18:38;99365.47;;;16.30;84.54
6387;BME280;3226;42.162;24.756;2023-05-21T05:21:08;99363.00;;;16.37;84.58
6387;BME280;3226;42.162;24.756;2023-05-21T05:23:36;99362.78;;;16.46;84.82
6387;BME280;3226;42.162;24.756;2023-05-21T05:26:04;99366.25;;;16.47;85.10
6387;BME280;3226;42.162;24.756;2023-05-21T05:28:32;99367.88;;;16.48;84.87
6387;BME280;3226;42.162;24.756;2023-05-21T05:31:00;99375.75;;;16.56;85.33
6387;BME280;3226;42.162;24.756;2023-05-21T05:33:28;99381.53;;;16.60;84.52
6387;BME280;3226;42.162;24.756;2023-05-21T05:35:56;99379.94;;;16.51;84.83
6387;BME280;3226;42.162;24.756;2023-05-21T05:38:26;99378.38;;;16.25;85.36
6387;BME280;3226;42.162;24.756;2023-05-21T05:40:54;99397.25;;;16.13;85.74
6387;BME280;3226;42.162;24.756;2023-05-21T05:43:23;99395.63;;;15.96;86.80
6387;BME280;3226;42.162;24.756;2023-05-21T05:45:51;99392.16;;;15.79;88.92
6387;BME280;3226;42.162;24.756;2023-05-21T05:48:20;99391.19;;;15.71;89.90
6387;BME280;3226;42.162;24.756;2023-05-21T05:50:47;99384.41;;;15.85;89.82
6387;BME280;3226;42.162;24.756;2023-05-21T05:53:16;99383.41;;;15.86;91.16
6387;BME280;3226;42.162;24.756;2023-05-21T05:55:45;99391.16;;;15.80;92.51
6387;BME280;3226;42.162;24.756;2023-05-21T05:58:13;99389.34;;;15.97;92.40
6387;BME280;3226;42.162;24.756;2023-05-21T06:00:41;99398.53;;;16.26;91.18
6387;BME280;3226;42.162;24.756;2023-05-21T06:03:09;99384.44;;;16.42;90.11
6387;BME280;3226;42.162;24.756;2023-05-21T06:05:37;99385.59;;;16.39;89.67
6387;BME280;3226;42.162;24.756;2023-05-21T06:08:06;99390.53;;;16.42;89.86
6387;BME280;3226;42.162;24.756;2023-05-21T06:10:34;99397.06;;;16.63;89.29
6387;BME280;3226;42.162;24.756;2023-05-21T06:13:03;99389.81;;;16.57;88.92
6387;BME280;3226;42.162;24.756;2023-05-21T06:15:32;99406.59;;;16.72;88.68
6387;BME280;3226;42.162;24.756;2023-05-21T06:18:00;99396.66;;;16.74;87.65
6387;BME280;3226;42.162;24.756;2023-05-21T06:20:28;99342.16;;;16.42;87.61
6387;BME280;3226;42.162;24.756;2023-05-21T06:22:56;99355.91;;;16.60;86.95
6387;BME280;3226;42.162;24.756;2023-05-21T06:25:24;99379.72;;;16.92;86.75
6387;BME280;3226;42.162;24.756;2023-05-21T06:27:52;99382.66;;;16.97;86.38
6387;BME280;3226;42.162;24.756;2023-05-21T06:30:21;99382.38;;;16.92;85.72
6387;BME280;3226;42.162;24.756;2023-05-21T06:32:50;99384.66;;;16.95;85.68
6387;BME280;3226;42.162;24.756;2023-05-21T06:35:18;99393.41;;;16.96;86.45
6387;BME280;3226;42.162;24.756;2023-05-21T06:37:46;99391.41;;;17.06;85.99
6387;BME280;3226;42.162;24.756;2023-05-21T06:40:14;99390.22;;;17.09;86.13
6387;BME280;3226;42.162;24.756;2023-05-21T06:42:42;99396.00;;;17.12;86.31
6387;BME280;3226;42.162;24.756;2023-05-21T06:45:11;99387.84;;;17.14;85.53
6387;BME280;3226;42.162;24.756;2023-05-21T06:47:40;99389.63;;;17.22;84.77
6387;BME280;3226;42.162;24.756;2023-05-21T06:50:09;99380.53;;;17.24;84.33
6387;BME280;3226;42.162;24.756;2023-05-21T06:52:37;99395.69;;;17.30;84.02
6387;BME280;3226;42.162;24.756;2023-05-21T06:55:05;99387.03;;;17.37;82.31
6387;BME280;3226;42.162;24.756;2023-05-21T06:57:33;99391.69;;;17.34;80.85
6387;BME280;3226;42.162;24.756;2023-05-21T07:00:01;99392.69;;;17.33;81.71
6387;BME280;3226;42.162;24.756;2023-05-21T07:02:29;99399.56;;;17.43;81.44
6387;BME280;3226;42.162;24.756;2023-05-21T07:04:59;99401.41;;;17.42;80.82
6387;BME280;3226;42.162;24.756;2023-05-21T07:07:27;99397.75;;;17.43;80.34
6387;BME280;3226;42.162;24.756;2023-05-21T07:09:55;99395.53;;;17.47;79.35
6387;BME280;3226;42.162;24.756;2023-05-21T07:12:23;99397.56;;;17.45;79.59
6387;BME280;3226;42.162;24.756;2023-05-21T07:14:51;99390.56;;;17.52;78.71
6387;BME280;3226;42.162;24.756;2023-05-21T07:17:19;99388.00;;;17.59;79.24
6387;BME280;3226;42.162;24.756;2023-05-21T07:19:47;99395.69;;;17.69;79.02
6387;BME280;3226;42.162;24.756;2023-05-21T07:22:16;99388.50;;;17.77;79.27
6387;BME280;3226;42.162;24.756;2023-05-21T07:24:44;99389.44;;;17.85;79.42
6387;BME280;3226;42.162;24.756;2023-05-21T07:27:12;99393.84;;;17.92;78.87
6387;BME280;3226;42.162;24.756;2023-05-21T07:29:51;99384.25;;;17.91;78.89
6387;BME280;3226;42.162;24.756;2023-05-21T07:32:19;99390.47;;;17.99;78.48
6387;BME280;3226;42.162;24.756;2023-05-21T07:34:47;99394.88;;;18.06;77.54
6387;BME280;3226;42.162;24.756;2023-05-21T07:37:18;99395.16;;;18.12;77.05
6387;BME280;3226;42.162;24.756;2023-05-21T07:39:46;99393.94;;;18.14;76.93
6387;BME280;3226;42.162;24.756;2023-05-21T07:42:14;99393.22;;;18.20;76.32
6387;BME280;3226;42.162;24.756;2023-05-21T07:44:42;99399.72;;;18.33;74.38
6387;BME280;3226;42.162;24.756;2023-05-21T07:47:10;99399.88;;;18.46;73.63
6387;BME280;3226;42.162;24.756;2023-05-21T07:49:38;99397.22;;;18.61;72.32
6387;BME280;3226;42.162;24.756;2023-05-21T07:52:06;99406.16;;;18.75;71.31
6387;BME280;3226;42.162;24.756;2023-05-21T07:54:35;99392.38;;;18.87;70.98
6387;BME280;3226;42.162;24.756;2023-05-21T07:57:04;99401.56;;;18.84;71.61
6387;BME280;3226;42.162;24.756;2023-05-21T07:59:32;99409.03;;;18.96;70.57
6387;BME280;3226;42.162;24.756;2023-05-21T08:02:00;99384.34;;;18.95;70.14
6387;BME280;3226;42.162;24.756;2023-05-21T08:04:28;99395.97;;;18.94;68.24
6387;BME280;3226;42.162;24.756;2023-05-21T08:06:56;99397.41;;;18.97;67.33
6387;BME280;3226;42.162;24.756;2023-05-21T08:09:24;99394.56;;;19.13;66.29
6387;BME280;3226;42.162;24.756;2023-05-21T08:11:53;99400.59;;;19.29;65.15
6387;BME280;3226;42.162;24.756;2023-05-21T08:14:21;99392.84;;;19.27;63.13
6387;BME280;3226;42.162;24.756;2023-05-21T08:16:49;99403.56;;;19.41;62.38
6387;BME280;3226;42.162;24.756;2023-05-21T08:19:17;99404.91;;;19.52;61.53
6387;BME280;3226;42.162;24.756;2023-05-21T08:21:45;99402.03;;;19.53;60.71
6387;BME280;3226;42.162;24.756;2023-05-21T08:24:16;99394.75;;;19.62;59.89
6387;BME280;3226;42.162;24.756;2023-05-21T08:26:44;99401.00;;;19.76;59.47
6387;BME280;3226;42.162;24.756;2023-05-21T08:29:16;99409.44;;;19.86;59.19
6387;BME280;3226;42.162;24.756;2023-05-21T08:31:44;99404.00;;;19.94;59.79
6387;BME280;3226;42.162;24.756;2023-05-21T08:34:12;99405.84;;;19.94;59.83
6387;BME280;3226;42.162;24.756;2023-05-21T08:36:40;99394.34;;;19.87;58.89
6387;BME280;3226;42.162;24.756;2023-05-21T08:39:08;99410.38;;;20.00;60.47
6387;BME280;3226;42.162;24.756;2023-05-21T08:41:38;99375.59;;;19.95;59.89
6387;BME280;3226;42.162;24.756;2023-05-21T08:44:10;99413.38;;;20.19;60.05
6387;BME280;3226;42.162;24.756;2023-05-21T08:46:39;99415.44;;;20.23;58.40
6387;BME280;3226;42.162;24.756;2023-05-21T08:49:11;99406.38;;;20.11;54.96
6387;BME280;3226;42.162;24.756;2023-05-21T08:51:40;99398.28;;;19.98;55.72
6387;BME280;3226;42.162;24.756;2023-05-21T08:54:08;99382.13;;;19.92;56.33
6387;BME280;3226;42.162;24.756;2023-05-21T08:56:37;99385.06;;;19.76;55.91
6387;BME280;3226;42.162;24.756;2023-05-21T08:59:11;99382.47;;;19.83;56.28
6387;BME280;3226;42.162;24.756;2023-05-21T09:01:41;99387.25;;;19.94;56.71
6387;BME280;3226;42.162;24.756;2023-05-21T09:04:11;99395.06;;;20.02;56.87
6387;BME280;3226;42.162;24.756;2023-05-21T09:06:47;99389.91;;;19.94;56.37
6387;BME280;3226;42.162;24.756;2023-05-21T09:09:18;99367.91;;;19.78;54.87
6387;BME280;3226;42.162;24.756;2023-05-21T09:11:51;99382.00;;;20.01;55.95
6387;BME280;3226;42.162;24.756;2023-05-21T09:14:20;99380.84;;;20.17;55.99
6387;BME280;3226;42.162;24.756;2023-05-21T09:16:51;99388.66;;;20.32;54.38
6387;BME280;3226;42.162;24.756;2023-05-21T09:19:19;99380.06;;;20.30;53.56
6387;BME280;3226;42.162;24.756;2023-05-21T09:21:49;99382.81;;;20.50;52.96
6387;BME280;3226;42.162;24.756;2023-05-21T09:24:20;99387.78;;;20.53;53.20
6387;BME280;3226;42.162;24.756;2023-05-21T09:26:48;99381.84;;;20.58;52.88
6387;BME280;3226;42.162;24.756;2023-05-21T09:29:17;99388.41;;;20.62;52.25
6387;BME280;3226;42.162;24.756;2023-05-21T09:31:45;99390.03;;;20.56;51.30
6387;BME280;3226;42.162;24.756;2023-05-21T09:34:14;99395.16;;;20.64;50.65
6387;BME280;3226;42.162;24.756;2023-05-21T09:36:43;99401.50;;;20.63;50.22
6387;BME280;3226;42.162;24.756;2023-05-21T09:39:10;99397.41;;;20.61;49.99
6387;BME280;3226;42.162;24.756;2023-05-21T09:41:42;99391.66;;;20.57;49.54
6387;BME280;3226;42.162;24.756;2023-05-21T09:44:10;99397.41;;;20.61;50.26
6387;BME280;3226;42.162;24.756;2023-05-21T09:46:39;99391.69;;;20.64;49.99
6387;BME280;3226;42.162;24.756;2023-05-21T09:49:21;99393.13;;;20.66;49.91
6387;BME280;3226;42.162;24.756;2023-05-21T09:51:52;99392.72;;;20.70;49.93
6387;BME280;3226;42.162;24.756;2023-05-21T09:54:21;99396.38;;;20.55;50.42
6387;BME280;3226;42.162;24.756;2023-05-21T09:56:50;99375.22;;;20.40;49.73
6387;BME280;3226;42.162;24.756;2023-05-21T09:59:19;99389.56;;;20.46;49.91
6387;BME280;3226;42.162;24.756;2023-05-21T10:01:49;99398.41;;;20.53;50.35
6387;BME280;3226;42.162;24.756;2023-05-21T10:04:20;99393.06;;;20.46;50.55
6387;BME280;3226;42.162;24.756;2023-05-21T10:06:50;99393.06;;;20.46;50.84
6387;BME280;3226;42.162;24.756;2023-05-21T10:09:19;99385.84;;;20.33;50.65
6387;BME280;3226;42.162;24.756;2023-05-21T10:11:48;99382.72;;;20.23;50.05
6387;BME280;3226;42.162;24.756;2023-05-21T10:14:19;99399.88;;;20.20;51.24
6387;BME280;3226;42.162;24.756;2023-05-21T10:16:49;99395.00;;;20.24;52.05
6387;BME280;3226;42.162;24.756;2023-05-21T10:19:21;99377.13;;;20.11;52.39
6387;BME280;3226;42.162;24.756;2023-05-21T10:21:53;99392.72;;;20.21;52.52
6387;BME280;3226;42.162;24.756;2023-05-21T10:24:23;99400.47;;;20.16;53.01
6387;BME280;3226;42.162;24.756;2023-05-21T10:26:52;99389.88;;;20.22;52.94
6387;BME280;3226;42.162;24.756;2023-05-21T10:29:22;99390.09;;;20.28;53.17
6387;BME280;3226;42.162;24.756;2023-05-21T10:31:51;99397.31;;;20.34;53.20
6387;BME280;3226;42.162;24.756;2023-05-21T10:34:22;99389.94;;;20.36;52.25
6387;BME280;3226;42.162;24.756;2023-05-21T10:36:51;99396.53;;;20.47;51.65
6387;BME280;3226;42.162;24.756;2023-05-21T10:39:22;99395.34;;;20.63;51.66
6387;BME280;3226;42.162;24.756;2023-05-21T10:41:57;99383.91;;;20.62;51.82
6387;BME280;3226;42.162;24.756;2023-05-21T10:44:35;99399.59;;;20.92;51.10
6387;BME280;3226;42.162;24.756;2023-05-21T10:47:35;99395.50;;;21.03;51.33
6387;BME280;3226;42.162;24.756;2023-05-21T10:50:28;99402.91;;;21.28;50.13
6387;BME280;3226;42.162;24.756;2023-05-21T10:53:07;99397.00;;;21.40;51.09
6387;BME280;3226;42.162;24.756;2023-05-21T10:55:53;99408.44;;;21.33;49.92
6387;BME280;3226;42.162;24.756;2023-05-21T10:58:46;99401.66;;;21.17;50.52
6387;BME280;3226;42.162;24.756;2023-05-21T11:01:18;99400.81;;;21.03;49.75
6387;BME280;3226;42.162;24.756;2023-05-21T11:03:46;99398.97;;;20.90;48.30
6387;BME280;3226;42.162;24.756;2023-05-21T11:06:24;99396.53;;;21.02;47.82
6387;BME280;3226;42.162;24.756;2023-05-21T11:08:52;99398.41;;;21.22;47.13
6387;BME280;3226;42.162;24.756;2023-05-21T11:11:41;99399.06;;;21.64;47.13
6387;BME280;3226;42.162;24.756;2023-05-21T11:14:28;99397.44;;;21.70;47.14
6387;BME280;3226;42.162;24.756;2023-05-21T11:16:58;99391.88;;;21.45;47.78
6387;BME280;3226;42.162;24.756;2023-05-21T11:19:35;99387.56;;;21.23;46.86
6387;BME280;3226;42.162;24.756;2023-05-21T11:22:18;99386.72;;;21.16;48.79
6387;BME280;3226;42.162;24.756;2023-05-21T11:24:47;99378.09;;;20.87;49.86
6387;BME280;3226;42.162;24.756;2023-05-21T11:27:30;99379.72;;;20.88;50.67
6387;BME280;3226;42.162;24.756;2023-05-21T11:30:03;99378.72;;;20.47;52.14
6387;BME280;3226;42.162;24.756;2023-05-21T11:32:35;99367.44;;;20.39;51.77
6387;BME280;3226;42.162;24.756;2023-05-21T11:35:04;99371.56;;;20.41;52.24
6387;BME280;3226;42.162;24.756;2023-05-21T11:37:34;99379.78;;;20.53;52.51
6387;BME280;3226;42.162;24.756;2023-05-21T11:40:22;99375.25;;;20.47;53.55
6387;BME280;3226;42.162;24.756;2023-05-21T11:42:53;99382.59;;;20.38;53.34
6387;BME280;3226;42.162;24.756;2023-05-21T11:45:22;99381.19;;;20.42;52.29
6387;BME280;3226;42.162;24.756;2023-05-21T11:47:51;99377.84;;;20.33;53.38
6387;BME280;3226;42.162;24.756;2023-05-21T11:50:20;99356.69;;;20.12;53.62
6387;BME280;3226;42.162;24.756;2023-05-21T11:52:49;99367.94;;;20.14;54.00
6387;BME280;3226;42.162;24.756;2023-05-21T11:55:21;99372.16;;;20.01;54.22
6387;BME280;3226;42.162;24.756;2023-05-21T11:57:52;99370.53;;;20.00;53.95
6387;BME280;3226;42.162;24.756;2023-05-21T12:00:20;99365.56;;;19.90;54.81
6387;BME280;3226;42.162;24.756;2023-05-21T12:02:50;99362.75;;;19.99;54.92
6387;BME280;3226;42.162;24.756;2023-05-21T12:05:20;99360.72;;;20.01;55.41
6387;BME280;3226;42.162;24.756;2023-05-21T12:07:50;99363.66;;;19.84;56.15
6387;BME280;3226;42.162;24.756;2023-05-21T12:10:20;99358.88;;;19.73;56.65
6387;BME280;3226;42.162;24.756;2023-05-21T12:12:49;99364.09;;;19.59;57.60
6387;BME280;3226;42.162;24.756;2023-05-21T12:15:22;99355.16;;;19.39;58.46
6387;BME280;3226;42.162;24.756;2023-05-21T12:17:51;99358.34;;;19.56;57.76
6387;BME280;3226;42.162;24.756;2023-05-21T12:20:20;99351.06;;;19.64;58.62
6387;BME280;3226;42.162;24.756;2023-05-21T12:22:50;99351.69;;;19.67;59.00
6387;BME280;3226;42.162;24.756;2023-05-21T12:25:18;99347.41;;;19.65;59.18
6387;BME280;3226;42.162;24.756;2023-05-21T12:27:47;99352.56;;;19.74;59.00
6387;BME280;3226;42.162;24.756;2023-05-21T12:30:18;99354.81;;;19.77;59.41
6387;BME280;3226;42.162;24.756;2023-05-21T12:32:47;99353.56;;;19.73;59.42
6387;BME280;3226;42.162;24.756;2023-05-21T12:35:22;99347.00;;;19.69;59.25
6387;BME280;3226;42.162;24.756;2023-05-21T12:37:52;99348.25;;;19.73;59.57
6387;BME280;3226;42.162;24.756;2023-05-21T12:40:20;99348.88;;;19.75;58.82
6387;BME280;3226;42.162;24.756;2023-05-21T12:42:48;99343.63;;;19.82;58.05
6387;BME280;3226;42.162;24.756;2023-05-21T12:45:17;99349.97;;;19.87;58.09
6387;BME280;3226;42.162;24.756;2023-05-21T12:47:48;99336.38;;;19.97;57.85
6387;BME280;3226;42.162;24.756;2023-05-21T12:50:22;99312.59;;;19.89;57.56
6387;BME280;3226;42.162;24.756;2023-05-21T12:52:54;99321.94;;;20.13;56.89
6387;BME280;3226;42.162;24.756;2023-05-21T12:55:23;99335.09;;;20.28;55.95
6387;BME280;3226;42.162;24.756;2023-05-21T12:58:00;99341.47;;;20.41;54.52
6387;BME280;3226;42.162;24.756;2023-05-21T13:00:30;99338.03;;;20.54;54.07
6387;BME280;3226;42.162;24.756;2023-05-21T13:02:58;99339.28;;;20.58;53.66
6387;BME280;3226;42.162;24.756;2023-05-21T13:05:27;99334.78;;;20.65;53.77
6387;BME280;3226;42.162;24.756;2023-05-21T13:07:57;99335.63;;;20.65;53.00
6387;BME280;3226;42.162;24.756;2023-05-21T13:10:25;99333.78;;;20.66;52.96
6387;BME280;3226;42.162;24.756;2023-05-21T13:12:53;99336.25;;;20.74;53.31
6387;BME280;3226;42.162;24.756;2023-05-21T13:15:21;99338.34;;;20.86;53.65
6387;BME280;3226;42.162;24.756;2023-05-21T13:17:49;99338.94;;;20.81;52.97
6387;BME280;3226;42.162;24.756;2023-05-21T13:20:20;99320.50;;;20.73;53.63
6387;BME280;3226;42.162;24.756;2023-05-21T13:22:52;99345.09;;;20.82;51.85